sensor_id;sensor_type;location;lat;lon;timestamp;P1;durP1;ratioP1;P2;durP2;ratioP2
28481;SDS011;15703;49.588;6.260;2022-10-30T00:01:01;13.30;;;7.83;;
28481;SDS011;15703;49.588;6.260;2022-10-30T00:03:23;10.30;;;7.40;;
28481;SDS011;15703;49.588;6.260;2022-10-30T00:05:46;11.53;;;6.73;;
28481;SDS011;15703;49.588;6.260;2022-10-30T00:08:09;11.30;;;7.27;;
28481;SDS011;15703;49.588;6.260;2022-10-30T00:10:32;10.60;;;7.40;;
28481;SDS011;15703;49.588;6.260;2022-10-30T00:12:55;11.40;;;6.93;;
28481;SDS011;15703;49.588;6.260;2022-10-30T00:15:18;11.53;;;7.70;;
28481;SDS011;15703;49.588;6.260;2022-10-30T00:17:40;12.13;;;7.63;;
28481;SDS011;15703;49.588;6.260;2022-10-30T00:20:03;13.50;;;8.30;;
28481;SDS011;15703;49.588;6.260;2022-10-30T00:22:25;14.23;;;8.33;;
28481;SDS011;15703;49.588;6.260;2022-10-30T00:24:47;13.90;;;7.73;;
28481;SDS011;15703;49.588;6.260;2022-10-30T00:27:10;13.00;;;7.83;;
28481;SDS011;15703;49.588;6.260;2022-10-30T00:29:32;11.63;;;7.33;;
28481;SDS011;15703;49.588;6.260;2022-10-30T00:31:54;11.40;;;6.93;;
28481;SDS011;15703;49.588;6.260;2022-10-30T00:34:16;10.67;;;7.80;;
28481;SDS011;15703;49.588;6.260;2022-10-30T00:36:38;10.93;;;7.07;;
28481;SDS011;15703;49.588;6.260;2022-10-30T00:39:01;16.10;;;8.00;;
28481;SDS011;15703;49.588;6.260;2022-10-30T00:41:24;10.97;;;6.93;;
28481;SDS011;15703;49.588;6.260;2022-10-30T00:43:48;13.57;;;7.53;;
28481;SDS011;15703;49.588;6.260;2022-10-30T00:49:03;11.57;;;8.30;;
28481;SDS011;15703;49.588;6.260;2022-10-30T00:51:27;9.60;;;7.03;;
28481;SDS011;15703;49.588;6.260;2022-10-30T00:53:50;11.90;;;7.57;;
28481;SDS011;15703;49.588;6.260;2022-10-30T00:56:13;12.33;;;7.83;;
28481;SDS011;15703;49.588;6.260;2022-10-30T00:58:49;10.20;;;6.57;;
28481;SDS011;15703;49.588;6.260;2022-10-30T01:01:15;11.90;;;7.13;;
28481;SDS011;15703;49.588;6.260;2022-10-30T01:03:39;10.00;;;7.67;;
28481;SDS011;15703;49.588;6.260;2022-10-30T01:06:03;12.57;;;6.70;;
28481;SDS011;15703;49.588;6.260;2022-10-30T01:08:27;11.43;;;7.67;;
28481;SDS011;15703;49.588;6.260;2022-10-30T01:10:50;10.87;;;7.47;;
28481;SDS011;15703;49.588;6.260;2022-10-30T01:13:12;15.17;;;6.93;;
28481;SDS011;15703;49.588;6.260;2022-10-30T01:15:37;9.10;;;7.30;;
28481;SDS011;15703;49.588;6.260;2022-10-30T01:20:51;9.33;;;6.37;;
28481;SDS011;15703;49.588;6.260;2022-10-30T01:28:11;8.37;;;6.87;;
28481;SDS011;15703;49.588;6.260;2022-10-30T01:35:43;8.40;;;7.57;;
28481;SDS011;15703;49.588;6.260;2022-10-30T01:40:29;8.60;;;6.43;;
28481;SDS011;15703;49.588;6.260;2022-10-30T01:42:52;10.93;;;7.10;;
28481;SDS011;15703;49.588;6.260;2022-10-30T01:45:30;14.43;;;7.73;;
28481;SDS011;15703;49.588;6.260;2022-10-30T01:50:46;13.00;;;7.40;;
28481;SDS011;15703;49.588;6.260;2022-10-30T01:55:47;10.43;;;7.13;;
28481;SDS011;15703;49.588;6.260;2022-10-30T02:00:35;8.93;;;6.77;;
28481;SDS011;15703;49.588;6.260;2022-10-30T02:02:58;14.80;;;7.20;;
28481;SDS011;15703;49.588;6.260;2022-10-30T02:05:31;9.47;;;6.90;;
28481;SDS011;15703;49.588;6.260;2022-10-30T02:07:55;9.83;;;7.10;;
28481;SDS011;15703;49.588;6.260;2022-10-30T02:10:19;10.93;;;6.40;;
28481;SDS011;15703;49.588;6.260;2022-10-30T02:12:42;10.53;;;6.63;;
28481;SDS011;15703;49.588;6.260;2022-10-30T02:15:09;7.83;;;6.53;;
28481;SDS011;15703;49.588;6.260;2022-10-30T02:17:32;8.80;;;5.90;;
28481;SDS011;15703;49.588;6.260;2022-10-30T02:19:54;11.33;;;7.17;;
28481;SDS011;15703;49.588;6.260;2022-10-30T02:22:17;11.80;;;6.97;;
28481;SDS011;15703;49.588;6.260;2022-10-30T02:24:39;12.43;;;7.23;;
28481;SDS011;15703;49.588;6.260;2022-10-30T02:27:02;11.17;;;6.43;;
28481;SDS011;15703;49.588;6.260;2022-10-30T02:29:25;9.03;;;6.60;;
28481;SDS011;15703;49.588;6.260;2022-10-30T02:31:48;8.97;;;7.00;;
28481;SDS011;15703;49.588;6.260;2022-10-30T02:34:10;9.37;;;6.73;;
28481;SDS011;15703;49.588;6.260;2022-10-30T02:36:32;9.13;;;5.93;;
28481;SDS011;15703;49.588;6.260;2022-10-30T02:38:54;6.40;;;5.70;;
28481;SDS011;15703;49.588;6.260;2022-10-30T02:41:17;8.40;;;6.70;;
28481;SDS011;15703;49.588;6.260;2022-10-30T02:43:39;11.33;;;6.97;;
28481;SDS011;15703;49.588;6.260;2022-10-30T02:46:02;7.67;;;6.53;;
28481;SDS011;15703;49.588;6.260;2022-10-30T02:48:26;7.63;;;6.53;;
28481;SDS011;15703;49.588;6.260;2022-10-30T02:50:50;8.23;;;6.10;;
28481;SDS011;15703;49.588;6.260;2022-10-30T02:53:13;8.73;;;6.70;;
28481;SDS011;15703;49.588;6.260;2022-10-30T02:55:35;8.60;;;6.73;;
28481;SDS011;15703;49.588;6.260;2022-10-30T02:57:57;8.20;;;6.30;;
28481;SDS011;15703;49.588;6.260;2022-10-30T03:00:20;16.87;;;6.90;;
28481;SDS011;15703;49.588;6.260;2022-10-30T03:02:42;10.20;;;6.60;;
28481;SDS011;15703;49.588;6.260;2022-10-30T03:05:04;9.37;;;7.13;;
28481;SDS011;15703;49.588;6.260;2022-10-30T03:07:27;8.57;;;6.70;;
28481;SDS011;15703;49.588;6.260;2022-10-30T03:09:49;8.87;;;6.70;;
28481;SDS011;15703;49.588;6.260;2022-10-30T03:12:12;8.53;;;7.20;;
28481;SDS011;15703;49.588;6.260;2022-10-30T03:14:34;6.90;;;5.93;;
28481;SDS011;15703;49.588;6.260;2022-10-30T03:16:57;9.23;;;5.97;;
28481;SDS011;15703;49.588;6.260;2022-10-30T03:19:20;8.80;;;6.83;;
28481;SDS011;15703;49.588;6.260;2022-10-30T03:21:42;7.40;;;6.60;;
28481;SDS011;15703;49.588;6.260;2022-10-30T03:24:07;7.63;;;6.27;;
28481;SDS011;15703;49.588;6.260;2022-10-30T03:26:29;10.73;;;6.33;;
28481;SDS011;15703;49.588;6.260;2022-10-30T03:28:57;10.50;;;6.30;;
28481;SDS011;15703;49.588;6.260;2022-10-30T03:31:20;11.43;;;7.60;;
28481;SDS011;15703;49.588;6.260;2022-10-30T03:33:55;8.17;;;6.23;;
28481;SDS011;15703;49.588;6.260;2022-10-30T03:36:18;8.30;;;6.50;;
28481;SDS011;15703;49.588;6.260;2022-10-30T03:38:40;8.40;;;6.57;;
28481;SDS011;15703;49.588;6.260;2022-10-30T03:41:07;8.60;;;6.60;;
28481;SDS011;15703;49.588;6.260;2022-10-30T03:43:29;7.83;;;5.90;;
28481;SDS011;15703;49.588;6.260;2022-10-30T03:45:52;8.73;;;6.20;;
28481;SDS011;15703;49.588;6.260;2022-10-30T03:48:15;12.07;;;6.43;;
28481;SDS011;15703;49.588;6.260;2022-10-30T03:50:38;9.43;;;6.77;;
28481;SDS011;15703;49.588;6.260;2022-10-30T03:53:13;8.60;;;7.13;;
28481;SDS011;15703;49.588;6.260;2022-10-30T03:55:35;7.10;;;6.40;;
28481;SDS011;15703;49.588;6.260;2022-10-30T03:57:58;9.30;;;6.93;;
28481;SDS011;15703;49.588;6.260;2022-10-30T04:00:21;7.57;;;6.70;;
28481;SDS011;15703;49.588;6.260;2022-10-30T04:02:50;7.07;;;6.37;;
28481;SDS011;15703;49.588;6.260;2022-10-30T04:05:13;11.90;;;6.20;;
28481;SDS011;15703;49.588;6.260;2022-10-30T04:07:36;9.73;;;6.77;;
28481;SDS011;15703;49.588;6.260;2022-10-30T04:09:58;7.93;;;6.57;;
28481;SDS011;15703;49.588;6.260;2022-10-30T04:12:22;10.13;;;7.20;;
28481;SDS011;15703;49.588;6.260;2022-10-30T04:14:44;9.27;;;7.07;;
28481;SDS011;15703;49.588;6.260;2022-10-30T04:17:07;9.50;;;6.60;;
28481;SDS011;15703;49.588;6.260;2022-10-30T04:19:34;8.83;;;6.33;;
28481;SDS011;15703;49.588;6.260;2022-10-30T04:21:56;8.40;;;6.40;;
28481;SDS011;15703;49.588;6.260;2022-10-30T04:24:19;6.83;;;5.37;;
28481;SDS011;15703;49.588;6.260;2022-10-30T04:26:45;6.47;;;5.80;;
28481;SDS011;15703;49.588;6.260;2022-10-30T04:29:11;8.43;;;5.70;;
28481;SDS011;15703;49.588;6.260;2022-10-30T04:31:34;10.33;;;6.87;;
28481;SDS011;15703;49.588;6.260;2022-10-30T04:33:56;7.60;;;6.50;;
28481;SDS011;15703;49.588;6.260;2022-10-30T04:36:19;7.97;;;7.10;;
28481;SDS011;15703;49.588;6.260;2022-10-30T04:38:44;7.87;;;7.00;;
28481;SDS011;15703;49.588;6.260;2022-10-30T04:41:07;7.63;;;6.83;;
28481;SDS011;15703;49.588;6.260;2022-10-30T04:43:43;9.70;;;6.20;;
28481;SDS011;15703;49.588;6.260;2022-10-30T04:46:06;10.53;;;7.20;;
28481;SDS011;15703;49.588;6.260;2022-10-30T04:48:28;7.33;;;6.60;;
28481;SDS011;15703;49.588;6.260;2022-10-30T04:50:50;8.97;;;6.27;;
28481;SDS011;15703;49.588;6.260;2022-10-30T04:53:17;9.03;;;6.23;;
28481;SDS011;15703;49.588;6.260;2022-10-30T04:55:43;7.83;;;7.03;;
28481;SDS011;15703;49.588;6.260;2022-10-30T04:58:07;7.43;;;6.63;;
28481;SDS011;15703;49.588;6.260;2022-10-30T05:00:31;6.33;;;5.47;;
28481;SDS011;15703;49.588;6.260;2022-10-30T05:03:19;8.53;;;6.83;;
28481;SDS011;15703;49.588;6.260;2022-10-30T05:05:42;16.07;;;6.90;;
28481;SDS011;15703;49.588;6.260;2022-10-30T05:08:05;6.90;;;5.83;;
28481;SDS011;15703;49.588;6.260;2022-10-30T05:10:33;10.47;;;6.00;;
28481;SDS011;15703;49.588;6.260;2022-10-30T05:12:55;8.00;;;5.97;;
28481;SDS011;15703;49.588;6.260;2022-10-30T05:15:25;7.23;;;5.17;;
28481;SDS011;15703;49.588;6.260;2022-10-30T05:17:51;7.47;;;6.13;;
28481;SDS011;15703;49.588;6.260;2022-10-30T05:20:17;6.63;;;5.93;;
28481;SDS011;15703;49.588;6.260;2022-10-30T05:22:39;7.37;;;6.27;;
28481;SDS011;15703;49.588;6.260;2022-10-30T05:25:02;8.93;;;6.97;;
28481;SDS011;15703;49.588;6.260;2022-10-30T05:27:24;11.00;;;7.40;;
28481;SDS011;15703;49.588;6.260;2022-10-30T05:29:46;9.00;;;6.77;;
28481;SDS011;15703;49.588;6.260;2022-10-30T05:32:09;10.77;;;6.50;;
28481;SDS011;15703;49.588;6.260;2022-10-30T05:34:34;5.60;;;5.00;;
28481;SDS011;15703;49.588;6.260;2022-10-30T05:36:57;7.83;;;5.80;;
28481;SDS011;15703;49.588;6.260;2022-10-30T05:39:19;6.37;;;5.00;;
28481;SDS011;15703;49.588;6.260;2022-10-30T05:41:44;6.17;;;5.57;;
28481;SDS011;15703;49.588;6.260;2022-10-30T05:44:06;6.77;;;5.17;;
28481;SDS011;15703;49.588;6.260;2022-10-30T05:46:32;5.97;;;5.37;;
28481;SDS011;15703;49.588;6.260;2022-10-30T05:49:11;7.53;;;5.90;;
28481;SDS011;15703;49.588;6.260;2022-10-30T05:51:33;9.47;;;6.17;;
28481;SDS011;15703;49.588;6.260;2022-10-30T05:54:02;6.50;;;4.90;;
28481;SDS011;15703;49.588;6.260;2022-10-30T05:56:25;5.50;;;4.97;;
28481;SDS011;15703;49.588;6.260;2022-10-30T05:58:50;8.83;;;5.80;;
28481;SDS011;15703;49.588;6.260;2022-10-30T06:01:12;7.23;;;5.77;;
28481;SDS011;15703;49.588;6.260;2022-10-30T06:03:38;6.87;;;5.57;;
28481;SDS011;15703;49.588;6.260;2022-10-30T06:06:01;6.20;;;5.60;;
28481;SDS011;15703;49.588;6.260;2022-10-30T06:08:23;6.87;;;5.27;;
28481;SDS011;15703;49.588;6.260;2022-10-30T06:10:49;7.13;;;5.20;;
28481;SDS011;15703;49.588;6.260;2022-10-30T06:13:15;5.30;;;4.80;;
28481;SDS011;15703;49.588;6.260;2022-10-30T06:15:48;6.00;;;5.10;;
28481;SDS011;15703;49.588;6.260;2022-10-30T06:18:10;5.37;;;4.87;;
28481;SDS011;15703;49.588;6.260;2022-10-30T06:20:35;5.73;;;5.13;;
28481;SDS011;15703;49.588;6.260;2022-10-30T06:23:19;5.43;;;4.67;;
28481;SDS011;15703;49.588;6.260;2022-10-30T06:25:55;8.47;;;5.93;;
28481;SDS011;15703;49.588;6.260;2022-10-30T06:28:29;6.23;;;5.43;;
28481;SDS011;15703;49.588;6.260;2022-10-30T06:30:53;6.80;;;5.87;;
28481;SDS011;15703;49.588;6.260;2022-10-30T06:33:15;8.03;;;5.80;;
28481;SDS011;15703;49.588;6.260;2022-10-30T06:35:42;7.30;;;5.77;;
28481;SDS011;15703;49.588;6.260;2022-10-30T06:38:07;6.53;;;5.50;;
28481;SDS011;15703;49.588;6.260;2022-10-30T06:40:32;6.57;;;5.77;;
28481;SDS011;15703;49.588;6.260;2022-10-30T06:42:54;6.97;;;5.60;;
28481;SDS011;15703;49.588;6.260;2022-10-30T06:45:26;5.77;;;5.27;;
28481;SDS011;15703;49.588;6.260;2022-10-30T06:47:49;6.93;;;5.33;;
28481;SDS011;15703;49.588;6.260;2022-10-30T06:50:14;6.70;;;4.97;;
28481;SDS011;15703;49.588;6.260;2022-10-30T06:52:36;6.33;;;5.70;;
28481;SDS011;15703;49.588;6.260;2022-10-30T06:54:59;6.23;;;5.50;;
28481;SDS011;15703;49.588;6.260;2022-10-30T06:57:42;5.53;;;5.00;;
28481;SDS011;15703;49.588;6.260;2022-10-30T07:00:22;5.53;;;4.90;;
28481;SDS011;15703;49.588;6.260;2022-10-30T07:03:04;5.93;;;5.03;;
28481;SDS011;15703;49.588;6.260;2022-10-30T07:05:29;9.17;;;6.47;;
28481;SDS011;15703;49.588;6.260;2022-10-30T07:07:51;10.80;;;7.00;;
28481;SDS011;15703;49.588;6.260;2022-10-30T07:10:13;7.90;;;6.90;;
28481;SDS011;15703;49.588;6.260;2022-10-30T07:12:55;8.87;;;6.67;;
28481;SDS011;15703;49.588;6.260;2022-10-30T07:15:37;8.53;;;7.03;;
28481;SDS011;15703;49.588;6.260;2022-10-30T07:18:29;10.53;;;7.20;;
28481;SDS011;15703;49.588;6.260;2022-10-30T07:20:54;8.03;;;6.43;;
28481;SDS011;15703;49.588;6.260;2022-10-30T07:23:17;8.87;;;5.73;;
28481;SDS011;15703;49.588;6.260;2022-10-30T07:25:40;10.10;;;6.43;;
28481;SDS011;15703;49.588;6.260;2022-10-30T07:28:11;12.67;;;7.73;;
28481;SDS011;15703;49.588;6.260;2022-10-30T07:30:36;9.50;;;7.50;;
28481;SDS011;15703;49.588;6.260;2022-10-30T07:33:19;8.30;;;6.97;;
28481;SDS011;15703;49.588;6.260;2022-10-30T07:35:55;8.33;;;7.30;;
28481;SDS011;15703;49.588;6.260;2022-10-30T07:38:30;12.30;;;8.10;;
28481;SDS011;15703;49.588;6.260;2022-10-30T07:41:05;12.37;;;8.90;;
28481;SDS011;15703;49.588;6.260;2022-10-30T07:43:40;9.87;;;8.27;;
28481;SDS011;15703;49.588;6.260;2022-10-30T07:46:21;10.10;;;7.43;;
28481;SDS011;15703;49.588;6.260;2022-10-30T07:49:15;9.00;;;7.67;;
28481;SDS011;15703;49.588;6.260;2022-10-30T07:51:47;15.00;;;8.27;;
28481;SDS011;15703;49.588;6.260;2022-10-30T07:54:10;15.47;;;8.83;;
28481;SDS011;15703;49.588;6.260;2022-10-30T07:56:32;14.63;;;8.97;;
28481;SDS011;15703;49.588;6.260;2022-10-30T07:59:13;10.03;;;8.20;;
28481;SDS011;15703;49.588;6.260;2022-10-30T08:02:08;11.97;;;8.10;;
28481;SDS011;15703;49.588;6.260;2022-10-30T08:05:04;14.37;;;8.83;;
28481;SDS011;15703;49.588;6.260;2022-10-30T08:07:55;11.10;;;7.87;;
28481;SDS011;15703;49.588;6.260;2022-10-30T08:10:19;11.80;;;7.30;;
28481;SDS011;15703;49.588;6.260;2022-10-30T08:12:42;9.83;;;6.97;;
28481;SDS011;15703;49.588;6.260;2022-10-30T08:15:10;8.10;;;6.80;;
28481;SDS011;15703;49.588;6.260;2022-10-30T08:17:39;10.70;;;7.13;;
28481;SDS011;15703;49.588;6.260;2022-10-30T08:20:02;11.13;;;7.30;;
28481;SDS011;15703;49.588;6.260;2022-10-30T08:22:24;8.57;;;7.23;;
28481;SDS011;15703;49.588;6.260;2022-10-30T08:24:53;10.13;;;7.03;;
28481;SDS011;15703;49.588;6.260;2022-10-30T08:27:15;8.53;;;6.87;;
28481;SDS011;15703;49.588;6.260;2022-10-30T08:29:37;9.87;;;6.43;;
28481;SDS011;15703;49.588;6.260;2022-10-30T08:31:59;9.70;;;6.10;;
28481;SDS011;15703;49.588;6.260;2022-10-30T08:34:45;8.20;;;6.00;;
28481;SDS011;15703;49.588;6.260;2022-10-30T08:37:10;11.87;;;7.07;;
28481;SDS011;15703;49.588;6.260;2022-10-30T08:39:32;9.43;;;6.03;;
28481;SDS011;15703;49.588;6.260;2022-10-30T08:42:17;10.63;;;6.53;;
28481;SDS011;15703;49.588;6.260;2022-10-30T08:44:39;7.13;;;6.43;;
28481;SDS011;15703;49.588;6.260;2022-10-30T08:47:31;9.50;;;5.95;;
28481;SDS011;15703;49.588;6.260;2022-10-30T08:49:53;10.93;;;6.32;;
28481;SDS011;15703;49.588;6.260;2022-10-30T08:52:20;8.93;;;4.88;;
28481;SDS011;15703;49.588;6.260;2022-10-30T08:54:47;10.02;;;5.60;;
28481;SDS011;15703;49.588;6.260;2022-10-30T08:57:10;8.25;;;4.95;;
28481;SDS011;15703;49.588;6.260;2022-10-30T08:59:32;7.90;;;4.85;;
28481;SDS011;15703;49.588;6.260;2022-10-30T09:01:55;8.82;;;5.50;;
28481;SDS011;15703;49.588;6.260;2022-10-30T09:04:37;10.02;;;5.05;;
28481;SDS011;15703;49.588;6.260;2022-10-30T09:07:18;11.90;;;4.95;;
28481;SDS011;15703;49.588;6.260;2022-10-30T09:10:01;9.10;;;5.50;;
28481;SDS011;15703;49.588;6.260;2022-10-30T09:12:26;13.07;;;5.53;;
28481;SDS011;15703;49.588;6.260;2022-10-30T09:14:48;10.38;;;4.82;;
28481;SDS011;15703;49.588;6.260;2022-10-30T09:17:11;10.88;;;5.22;;
28481;SDS011;15703;49.588;6.260;2022-10-30T09:19:37;10.38;;;5.47;;
28481;SDS011;15703;49.588;6.260;2022-10-30T09:22:00;11.23;;;4.93;;
28481;SDS011;15703;49.588;6.260;2022-10-30T09:24:24;10.45;;;5.07;;
28481;SDS011;15703;49.588;6.260;2022-10-30T09:26:46;10.13;;;5.30;;
28481;SDS011;15703;49.588;6.260;2022-10-30T09:29:16;8.15;;;4.80;;
28481;SDS011;15703;49.588;6.260;2022-10-30T09:32:00;12.43;;;5.68;;
28481;SDS011;15703;49.588;6.260;2022-10-30T09:34:26;7.30;;;4.15;;
28481;SDS011;15703;49.588;6.260;2022-10-30T09:36:54;6.90;;;4.05;;
28481;SDS011;15703;49.588;6.260;2022-10-30T09:39:17;9.70;;;4.78;;
28481;SDS011;15703;49.588;6.260;2022-10-30T09:46:48;9.50;;;4.93;;
28481;SDS011;15703;49.588;6.260;2022-10-30T09:54:31;8.82;;;4.35;;
28481;SDS011;15703;49.588;6.260;2022-10-30T09:57:01;10.70;;;4.50;;
28481;SDS011;15703;49.588;6.260;2022-10-30T10:01:50;8.07;;;3.90;;
28481;SDS011;15703;49.588;6.260;2022-10-30T10:06:40;7.88;;;4.00;;
28481;SDS011;15703;49.588;6.260;2022-10-30T10:09:31;10.18;;;4.10;;
28481;SDS011;15703;49.588;6.260;2022-10-30T10:12:12;12.15;;;4.05;;
28481;SDS011;15703;49.588;6.260;2022-10-30T10:14:35;8.35;;;4.03;;
28481;SDS011;15703;49.588;6.260;2022-10-30T10:17:00;8.23;;;3.72;;
28481;SDS011;15703;49.588;6.260;2022-10-30T10:22:26;7.18;;;3.67;;
28481;SDS011;15703;49.588;6.260;2022-10-30T10:24:47;5.78;;;3.95;;
28481;SDS011;15703;49.588;6.260;2022-10-30T10:27:26;8.00;;;4.20;;
28481;SDS011;15703;49.588;6.260;2022-10-30T10:29:57;11.88;;;3.70;;
28481;SDS011;15703;49.588;6.260;2022-10-30T10:42:30;11.35;;;3.45;;
28481;SDS011;15703;49.588;6.260;2022-10-30T10:47:47;7.40;;;4.07;;
28481;SDS011;15703;49.588;6.260;2022-10-30T10:53:06;13.15;;;4.05;;
28481;SDS011;15703;49.588;6.260;2022-10-30T10:55:35;8.70;;;3.45;;
28481;SDS011;15703;49.588;6.260;2022-10-30T11:00:39;7.38;;;3.28;;
28481;SDS011;15703;49.588;6.260;2022-10-30T11:03:08;7.43;;;3.45;;
28481;SDS011;15703;49.588;6.260;2022-10-30T11:05:36;9.23;;;3.92;;
28481;SDS011;15703;49.588;6.260;2022-10-30T11:08:03;9.10;;;3.85;;
28481;SDS011;15703;49.588;6.260;2022-10-30T11:10:31;8.40;;;3.58;;
28481;SDS011;15703;49.588;6.260;2022-10-30T11:12:56;9.60;;;3.72;;
28481;SDS011;15703;49.588;6.260;2022-10-30T11:20:15;6.68;;;3.63;;
28481;SDS011;15703;49.588;6.260;2022-10-30T11:22:40;7.70;;;3.50;;
28481;SDS011;15703;49.588;6.260;2022-10-30T11:25:18;7.38;;;3.42;;
28481;SDS011;15703;49.588;6.260;2022-10-30T11:27:40;9.32;;;3.60;;
28481;SDS011;15703;49.588;6.260;2022-10-30T11:30:04;9.80;;;3.35;;
28481;SDS011;15703;49.588;6.260;2022-10-30T11:32:31;7.28;;;3.10;;
28481;SDS011;15703;49.588;6.260;2022-10-30T11:35:00;8.65;;;3.40;;
28481;SDS011;15703;49.588;6.260;2022-10-30T11:37:36;7.45;;;3.30;;
28481;SDS011;15703;49.588;6.260;2022-10-30T11:42:24;10.45;;;3.95;;
28481;SDS011;15703;49.588;6.260;2022-10-30T11:44:47;11.63;;;3.50;;
28481;SDS011;15703;49.588;6.260;2022-10-30T11:47:10;9.35;;;3.40;;
28481;SDS011;15703;49.588;6.260;2022-10-30T11:49:40;11.23;;;4.03;;
28481;SDS011;15703;49.588;6.260;2022-10-30T11:52:05;6.32;;;3.13;;
28481;SDS011;15703;49.588;6.260;2022-10-30T11:54:27;10.75;;;3.88;;
28481;SDS011;15703;49.588;6.260;2022-10-30T11:56:50;7.30;;;3.47;;
28481;SDS011;15703;49.588;6.260;2022-10-30T11:59:17;6.57;;;3.92;;
28481;SDS011;15703;49.588;6.260;2022-10-30T12:01:40;8.10;;;4.00;;
28481;SDS011;15703;49.588;6.260;2022-10-30T12:04:27;9.75;;;3.67;;
28481;SDS011;15703;49.588;6.260;2022-10-30T12:09:40;7.88;;;3.85;;
28481;SDS011;15703;49.588;6.260;2022-10-30T12:12:08;11.63;;;3.42;;
28481;SDS011;15703;49.588;6.260;2022-10-30T12:14:31;9.05;;;3.92;;
28481;SDS011;15703;49.588;6.260;2022-10-30T12:16:55;8.65;;;3.92;;
28481;SDS011;15703;49.588;6.260;2022-10-30T12:19:18;7.43;;;3.33;;
28481;SDS011;15703;49.588;6.260;2022-10-30T12:21:45;12.05;;;3.58;;
28481;SDS011;15703;49.588;6.260;2022-10-30T12:24:12;9.38;;;3.55;;
28481;SDS011;15703;49.588;6.260;2022-10-30T12:26:35;10.75;;;3.55;;
28481;SDS011;15703;49.588;6.260;2022-10-30T12:28:59;5.38;;;3.40;;
28481;SDS011;15703;49.588;6.260;2022-10-30T12:31:25;8.20;;;3.55;;
28481;SDS011;15703;49.588;6.260;2022-10-30T12:33:56;8.02;;;3.10;;
28481;SDS011;15703;49.588;6.260;2022-10-30T12:36:25;6.88;;;3.80;;
28481;SDS011;15703;49.588;6.260;2022-10-30T12:38:56;7.47;;;3.25;;
28481;SDS011;15703;49.588;6.260;2022-10-30T12:43:46;6.32;;;3.33;;
28481;SDS011;15703;49.588;6.260;2022-10-30T12:48:54;12.27;;;3.92;;
28481;SDS011;15703;49.588;6.260;2022-10-30T12:51:21;10.55;;;3.33;;
28481;SDS011;15703;49.588;6.260;2022-10-30T12:56:11;8.02;;;3.15;;
28481;SDS011;15703;49.588;6.260;2022-10-30T12:58:45;8.70;;;3.63;;
28481;SDS011;15703;49.588;6.260;2022-10-30T13:03:52;4.07;;;3.00;;
28481;SDS011;15703;49.588;6.260;2022-10-30T13:06:19;11.90;;;3.75;;
28481;SDS011;15703;49.588;6.260;2022-10-30T13:14:12;7.55;;;3.47;;
28481;SDS011;15703;49.588;6.260;2022-10-30T13:16:36;8.10;;;3.65;;
28481;SDS011;15703;49.588;6.260;2022-10-30T13:18:58;10.23;;;3.30;;
28481;SDS011;15703;49.588;6.260;2022-10-30T13:22:10;9.52;;;3.22;;
28481;SDS011;15703;49.588;6.260;2022-10-30T13:24:14;8.32;;;3.33;;
28481;SDS011;15703;49.588;6.260;2022-10-30T13:26:40;6.93;;;3.47;;
28481;SDS011;15703;49.588;6.260;2022-10-30T13:29:19;6.65;;;3.50;;
28481;SDS011;15703;49.588;6.260;2022-10-30T13:31:50;6.05;;;3.05;;
28481;SDS011;15703;49.588;6.260;2022-10-30T13:36:46;4.88;;;3.15;;
28481;SDS011;15703;49.588;6.260;2022-10-30T13:39:14;8.15;;;3.47;;
28481;SDS011;15703;49.588;6.260;2022-10-30T13:49:21;8.20;;;3.15;;
28481;SDS011;15703;49.588;6.260;2022-10-30T13:54:21;11.88;;;3.53;;
28481;SDS011;15703;49.588;6.260;2022-10-30T13:56:45;9.35;;;3.00;;
28481;SDS011;15703;49.588;6.260;2022-10-30T14:01:57;5.80;;;3.22;;
28481;SDS011;15703;49.588;6.260;2022-10-30T14:04:25;8.95;;;3.30;;
28481;SDS011;15703;49.588;6.260;2022-10-30T14:11:51;7.10;;;3.80;;
28481;SDS011;15703;49.588;6.260;2022-10-30T14:14:25;8.45;;;3.33;;
28481;SDS011;15703;49.588;6.260;2022-10-30T14:17:11;7.43;;;3.03;;
28481;SDS011;15703;49.588;6.260;2022-10-30T14:19:32;6.22;;;3.10;;
28481;SDS011;15703;49.588;6.260;2022-10-30T14:22:21;5.40;;;2.88;;
28481;SDS011;15703;49.588;6.260;2022-10-30T14:24:44;8.07;;;3.38;;
28481;SDS011;15703;49.588;6.260;2022-10-30T14:27:10;9.27;;;3.28;;
28481;SDS011;15703;49.588;6.260;2022-10-30T14:31:54;6.20;;;2.95;;
28481;SDS011;15703;49.588;6.260;2022-10-30T14:36:58;6.43;;;2.72;;
28481;SDS011;15703;49.588;6.260;2022-10-30T14:39:27;8.60;;;3.20;;
28481;SDS011;15703;49.588;6.260;2022-10-30T14:47:14;11.23;;;3.30;;
28481;SDS011;15703;49.588;6.260;2022-10-30T14:50:02;8.30;;;2.58;;
28481;SDS011;15703;49.588;6.260;2022-10-30T14:55:03;7.70;;;2.95;;
28481;SDS011;15703;49.588;6.260;2022-10-30T15:02:46;7.32;;;2.85;;
28481;SDS011;15703;49.588;6.260;2022-10-30T15:07:55;6.28;;;2.30;;
28481;SDS011;15703;49.588;6.260;2022-10-30T15:10:32;7.45;;;2.50;;
28481;SDS011;15703;49.588;6.260;2022-10-30T15:15:23;6.32;;;2.22;;
28481;SDS011;15703;49.588;6.260;2022-10-30T15:17:54;7.95;;;2.40;;
28481;SDS011;15703;49.588;6.260;2022-10-30T15:20:19;9.60;;;2.50;;
28481;SDS011;15703;49.588;6.260;2022-10-30T15:22:42;4.88;;;2.70;;
28481;SDS011;15703;49.588;6.260;2022-10-30T15:25:04;5.78;;;2.53;;
28481;SDS011;15703;49.588;6.260;2022-10-30T15:27:33;6.25;;;2.40;;
28481;SDS011;15703;49.588;6.260;2022-10-30T15:29:59;9.93;;;3.00;;
28481;SDS011;15703;49.588;6.260;2022-10-30T15:32:22;6.32;;;2.70;;
28481;SDS011;15703;49.588;6.260;2022-10-30T15:35:02;6.00;;;2.70;;
28481;SDS011;15703;49.588;6.260;2022-10-30T15:37:25;4.93;;;2.70;;
28481;SDS011;15703;49.588;6.260;2022-10-30T15:39:48;5.20;;;2.78;;
28481;SDS011;15703;49.588;6.260;2022-10-30T15:42:10;5.20;;;2.38;;
28481;SDS011;15703;49.588;6.260;2022-10-30T15:44:33;4.68;;;2.45;;
28481;SDS011;15703;49.588;6.260;2022-10-30T15:46:58;5.63;;;3.25;;
28481;SDS011;15703;49.588;6.260;2022-10-30T15:51:50;8.38;;;2.97;;
28481;SDS011;15703;49.588;6.260;2022-10-30T15:54:13;7.07;;;3.03;;
28481;SDS011;15703;49.588;6.260;2022-10-30T15:56:37;8.20;;;3.00;;
28481;SDS011;15703;49.588;6.260;2022-10-30T15:59:26;7.63;;;3.50;;
28481;SDS011;15703;49.588;6.260;2022-10-30T16:01:51;7.60;;;3.28;;
28481;SDS011;15703;49.588;6.260;2022-10-30T16:04:15;8.75;;;2.95;;
28481;SDS011;15703;49.588;6.260;2022-10-30T16:06:37;7.78;;;3.65;;
28481;SDS011;15703;49.588;6.260;2022-10-30T16:09:01;6.28;;;3.00;;
28481;SDS011;15703;49.588;6.260;2022-10-30T16:11:24;3.47;;;2.20;;
28481;SDS011;15703;49.588;6.260;2022-10-30T16:13:47;6.45;;;3.05;;
28481;SDS011;15703;49.588;6.260;2022-10-30T16:16:19;7.95;;;3.20;;
28481;SDS011;15703;49.588;6.260;2022-10-30T16:18:44;5.25;;;2.90;;
28481;SDS011;15703;49.588;6.260;2022-10-30T16:21:11;4.28;;;3.60;;
28481;SDS011;15703;49.588;6.260;2022-10-30T16:23:36;5.60;;;3.63;;
28481;SDS011;15703;49.588;6.260;2022-10-30T16:25:58;5.45;;;3.08;;
28481;SDS011;15703;49.588;6.260;2022-10-30T16:28:26;4.18;;;3.33;;
28481;SDS011;15703;49.588;6.260;2022-10-30T16:30:51;7.03;;;3.60;;
28481;SDS011;15703;49.588;6.260;2022-10-30T16:33:14;5.32;;;3.22;;
28481;SDS011;15703;49.588;6.260;2022-10-30T16:35:39;5.03;;;3.17;;
28481;SDS011;15703;49.588;6.260;2022-10-30T16:38:01;8.68;;;3.85;;
28481;SDS011;15703;49.588;6.260;2022-10-30T16:40:26;7.35;;;4.18;;
28481;SDS011;15703;49.588;6.260;2022-10-30T16:42:50;5.28;;;3.20;;
28481;SDS011;15703;49.588;6.260;2022-10-30T16:47:45;4.68;;;3.40;;
28481;SDS011;15703;49.588;6.260;2022-10-30T16:50:11;7.40;;;4.03;;
28481;SDS011;15703;49.588;6.260;2022-10-30T16:52:36;8.88;;;3.70;;
28481;SDS011;15703;49.588;6.260;2022-10-30T16:55:05;7.93;;;3.15;;
28481;SDS011;15703;49.588;6.260;2022-10-30T16:57:28;8.98;;;3.75;;